sensor_id;sensor_type;location;lat;lon;timestamp;P1;durP1;ratioP1;P2;durP2;ratioP2
51438;SDS011;38816;51.142;-0.974;2023-01-19T00:00:35;17.63;;;5.68;;
51438;SDS011;38816;51.142;-0.974;2023-01-19T00:03:01;16.17;;;5.35;;
51438;SDS011;38816;51.142;-0.974;2023-01-19T00:05:28;17.33;;;5.38;;
51438;SDS011;38816;51.142;-0.974;2023-01-19T00:07:53;17.15;;;6.10;;
51438;SDS011;38816;51.142;-0.974;2023-01-19T00:10:18;12.48;;;5.68;;
51438;SDS011;38816;51.142;-0.974;2023-01-19T00:12:44;19.38;;;6.45;;
51438;SDS011;38816;51.142;-0.974;2023-01-19T00:15:09;15.75;;;5.85;;
51438;SDS011;38816;51.142;-0.974;2023-01-19T00:17:35;23.65;;;6.25;;
51438;SDS011;38816;51.142;-0.974;2023-01-19T00:20:01;15.27;;;5.97;;
51438;SDS011;38816;51.142;-0.974;2023-01-19T00:22:27;22.60;;;5.55;;
51438;SDS011;38816;51.142;-0.974;2023-01-19T00:24:53;20.08;;;6.15;;
51438;SDS011;38816;51.142;-0.974;2023-01-19T00:27:18;21.92;;;6.18;;
51438;SDS011;38816;51.142;-0.974;2023-01-19T00:29:44;13.23;;;5.68;;
51438;SDS011;38816;51.142;-0.974;2023-01-19T00:32:09;14.32;;;6.35;;
51438;SDS011;38816;51.142;-0.974;2023-01-19T00:34:34;18.13;;;6.05;;
51438;SDS011;38816;51.142;-0.974;2023-01-19T00:37:06;14.32;;;5.88;;
51438;SDS011;38816;51.142;-0.974;2023-01-19T00:39:33;14.57;;;6.93;;
51438;SDS011;38816;51.142;-0.974;2023-01-19T00:41:58;17.27;;;6.95;;
51438;SDS011;38816;51.142;-0.974;2023-01-19T00:44:42;21.08;;;7.53;;
51438;SDS011;38816;51.142;-0.974;2023-01-19T00:47:08;13.70;;;6.50;;
51438;SDS011;38816;51.142;-0.974;2023-01-19T00:49:33;23.95;;;7.72;;
51438;SDS011;38816;51.142;-0.974;2023-01-19T00:51:59;22.35;;;7.35;;
51438;SDS011;38816;51.142;-0.974;2023-01-19T00:54:24;16.65;;;7.32;;
51438;SDS011;38816;51.142;-0.974;2023-01-19T00:56:49;17.20;;;7.15;;
51438;SDS011;38816;51.142;-0.974;2023-01-19T00:59:15;23.10;;;7.60;;
51438;SDS011;38816;51.142;-0.974;2023-01-19T01:01:40;23.85;;;7.35;;
51438;SDS011;38816;51.142;-0.974;2023-01-19T01:04:06;20.83;;;7.50;;
51438;SDS011;38816;51.142;-0.974;2023-01-19T01:06:31;18.75;;;6.65;;
51438;SDS011;38816;51.142;-0.974;2023-01-19T01:08:56;16.75;;;6.90;;
51438;SDS011;38816;51.142;-0.974;2023-01-19T01:11:22;15.07;;;6.72;;
51438;SDS011;38816;51.142;-0.974;2023-01-19T01:13:47;17.50;;;6.55;;
51438;SDS011;38816;51.142;-0.974;2023-01-19T01:16:13;30.70;;;7.97;;
51438;SDS011;38816;51.142;-0.974;2023-01-19T01:18:40;20.98;;;7.30;;
51438;SDS011;38816;51.142;-0.974;2023-01-19T01:21:06;16.17;;;6.97;;
51438;SDS011;38816;51.142;-0.974;2023-01-19T01:23:32;20.48;;;7.00;;
51438;SDS011;38816;51.142;-0.974;2023-01-19T01:25:58;19.25;;;6.28;;
51438;SDS011;38816;51.142;-0.974;2023-01-19T01:28:23;20.38;;;6.65;;
51438;SDS011;38816;51.142;-0.974;2023-01-19T01:30:53;15.45;;;6.90;;
51438;SDS011;38816;51.142;-0.974;2023-01-19T01:33:19;13.40;;;6.28;;
51438;SDS011;38816;51.142;-0.974;2023-01-19T01:35:45;14.45;;;5.97;;
51438;SDS011;38816;51.142;-0.974;2023-01-19T01:38:12;10.20;;;5.22;;
51438;SDS011;38816;51.142;-0.974;2023-01-19T01:40:39;16.63;;;6.53;;
51438;SDS011;38816;51.142;-0.974;2023-01-19T01:43:15;15.73;;;6.10;;
51438;SDS011;38816;51.142;-0.974;2023-01-19T01:45:42;15.90;;;5.53;;
51438;SDS011;38816;51.142;-0.974;2023-01-19T01:50:50;19.77;;;6.95;;
51438;SDS011;38816;51.142;-0.974;2023-01-19T01:53:36;13.15;;;5.57;;
51438;SDS011;38816;51.142;-0.974;2023-01-19T01:56:04;14.90;;;6.00;;
51438;SDS011;38816;51.142;-0.974;2023-01-19T01:58:34;15.55;;;7.20;;
51438;SDS011;38816;51.142;-0.974;2023-01-19T02:01:01;24.75;;;7.57;;
51438;SDS011;38816;51.142;-0.974;2023-01-19T02:03:45;17.02;;;7.47;;
51438;SDS011;38816;51.142;-0.974;2023-01-19T02:06:11;16.15;;;7.97;;
51438;SDS011;38816;51.142;-0.974;2023-01-19T02:11:48;23.63;;;8.07;;
51438;SDS011;38816;51.142;-0.974;2023-01-19T02:14:33;19.58;;;6.88;;
51438;SDS011;38816;51.142;-0.974;2023-01-19T02:17:01;23.67;;;7.35;;
51438;SDS011;38816;51.142;-0.974;2023-01-19T02:19:29;21.75;;;7.05;;
51438;SDS011;38816;51.142;-0.974;2023-01-19T02:22:04;20.27;;;8.73;;
51438;SDS011;38816;51.142;-0.974;2023-01-19T02:24:52;18.80;;;7.05;;
51438;SDS011;38816;51.142;-0.974;2023-01-19T02:27:18;16.52;;;6.90;;
51438;SDS011;38816;51.142;-0.974;2023-01-19T02:29:44;17.85;;;7.75;;
51438;SDS011;38816;51.142;-0.974;2023-01-19T02:32:10;25.08;;;7.60;;
51438;SDS011;38816;51.142;-0.974;2023-01-19T02:34:35;14.73;;;7.45;;
51438;SDS011;38816;51.142;-0.974;2023-01-19T02:37:11;21.63;;;7.90;;
51438;SDS011;38816;51.142;-0.974;2023-01-19T02:39:43;14.93;;;7.50;;
51438;SDS011;38816;51.142;-0.974;2023-01-19T02:42:17;20.80;;;7.57;;
51438;SDS011;38816;51.142;-0.974;2023-01-19T02:44:45;15.00;;;7.70;;
51438;SDS011;38816;51.142;-0.974;2023-01-19T02:47:13;13.95;;;6.95;;
51438;SDS011;38816;51.142;-0.974;2023-01-19T02:49:39;20.00;;;7.03;;
51438;SDS011;38816;51.142;-0.974;2023-01-19T02:52:04;20.38;;;7.60;;
51438;SDS011;38816;51.142;-0.974;2023-01-19T03:08:55;22.00;;;7.80;;
51438;SDS011;38816;51.142;-0.974;2023-01-19T03:11:26;26.98;;;8.65;;
51438;SDS011;38816;51.142;-0.974;2023-01-19T03:14:03;15.60;;;8.03;;
51438;SDS011;38816;51.142;-0.974;2023-01-19T03:16:43;25.52;;;7.85;;
51438;SDS011;38816;51.142;-0.974;2023-01-19T03:19:17;22.83;;;8.15;;
51438;SDS011;38816;51.142;-0.974;2023-01-19T03:21:48;21.20;;;8.25;;
51438;SDS011;38816;51.142;-0.974;2023-01-19T03:24:18;26.05;;;8.95;;
51438;SDS011;38816;51.142;-0.974;2023-01-19T03:26:48;16.70;;;8.48;;
51438;SDS011;38816;51.142;-0.974;2023-01-19T03:29:21;18.73;;;7.82;;
51438;SDS011;38816;51.142;-0.974;2023-01-19T03:31:51;24.88;;;8.80;;
51438;SDS011;38816;51.142;-0.974;2023-01-19T03:34:19;21.40;;;8.00;;
51438;SDS011;38816;51.142;-0.974;2023-01-19T03:36:48;16.17;;;8.45;;
51438;SDS011;38816;51.142;-0.974;2023-01-19T03:39:20;19.10;;;8.02;;
51438;SDS011;38816;51.142;-0.974;2023-01-19T03:41:47;15.05;;;7.60;;
51438;SDS011;38816;51.142;-0.974;2023-01-19T03:44:17;162.57;;;12.27;;
51438;SDS011;38816;51.142;-0.974;2023-01-19T03:46:46;28.40;;;8.55;;
51438;SDS011;38816;51.142;-0.974;2023-01-19T03:49:12;18.00;;;9.00;;
51438;SDS011;38816;51.142;-0.974;2023-01-19T03:51:38;23.25;;;9.10;;
51438;SDS011;38816;51.142;-0.974;2023-01-19T03:54:04;23.45;;;9.32;;
51438;SDS011;38816;51.142;-0.974;2023-01-19T03:56:30;21.08;;;9.85;;
51438;SDS011;38816;51.142;-0.974;2023-01-19T03:58:56;21.67;;;8.90;;
51438;SDS011;38816;51.142;-0.974;2023-01-19T04:01:21;17.15;;;9.18;;
51438;SDS011;38816;51.142;-0.974;2023-01-19T04:03:51;19.30;;;9.20;;
51438;SDS011;38816;51.142;-0.974;2023-01-19T04:06:17;84.00;;;10.82;;
51438;SDS011;38816;51.142;-0.974;2023-01-19T04:08:44;16.98;;;8.15;;
51438;SDS011;38816;51.142;-0.974;2023-01-19T04:11:12;24.30;;;9.75;;
51438;SDS011;38816;51.142;-0.974;2023-01-19T04:13:38;26.27;;;8.23;;
51438;SDS011;38816;51.142;-0.974;2023-01-19T04:16:03;33.78;;;9.05;;
51438;SDS011;38816;51.142;-0.974;2023-01-19T04:18:30;22.63;;;8.77;;
51438;SDS011;38816;51.142;-0.974;2023-01-19T04:21:00;14.32;;;8.18;;
51438;SDS011;38816;51.142;-0.974;2023-01-19T04:23:27;21.23;;;8.65;;
51438;SDS011;38816;51.142;-0.974;2023-01-19T04:26:00;20.23;;;8.73;;
51438;SDS011;38816;51.142;-0.974;2023-01-19T04:28:27;26.95;;;8.82;;
51438;SDS011;38816;51.142;-0.974;2023-01-19T04:30:52;17.90;;;7.72;;
51438;SDS011;38816;51.142;-0.974;2023-01-19T04:33:18;11.85;;;6.90;;
51438;SDS011;38816;51.142;-0.974;2023-01-19T04:35:45;20.33;;;7.85;;
51438;SDS011;38816;51.142;-0.974;2023-01-19T04:38:11;17.75;;;7.13;;
51438;SDS011;38816;51.142;-0.974;2023-01-19T04:40:36;16.55;;;7.13;;
51438;SDS011;38816;51.142;-0.974;2023-01-19T04:43:01;14.52;;;6.90;;
51438;SDS011;38816;51.142;-0.974;2023-01-19T04:45:27;14.48;;;7.20;;
51438;SDS011;38816;51.142;-0.974;2023-01-19T04:47:52;19.05;;;7.70;;
51438;SDS011;38816;51.142;-0.974;2023-01-19T04:50:18;14.20;;;8.13;;
51438;SDS011;38816;51.142;-0.974;2023-01-19T04:52:43;17.23;;;8.40;;
51438;SDS011;38816;51.142;-0.974;2023-01-19T04:55:09;23.77;;;12.60;;
51438;SDS011;38816;51.142;-0.974;2023-01-19T04:57:35;42.33;;;18.75;;
51438;SDS011;38816;51.142;-0.974;2023-01-19T05:00:00;42.97;;;18.65;;
51438;SDS011;38816;51.142;-0.974;2023-01-19T05:04:57;18.88;;;8.88;;
51438;SDS011;38816;51.142;-0.974;2023-01-19T05:07:23;18.98;;;7.97;;
51438;SDS011;38816;51.142;-0.974;2023-01-19T05:09:48;18.05;;;9.18;;
51438;SDS011;38816;51.142;-0.974;2023-01-19T05:12:13;33.45;;;10.90;;
51438;SDS011;38816;51.142;-0.974;2023-01-19T05:14:39;13.35;;;7.18;;
51438;SDS011;38816;51.142;-0.974;2023-01-19T05:17:05;21.80;;;7.18;;
51438;SDS011;38816;51.142;-0.974;2023-01-19T05:19:30;11.95;;;6.32;;
51438;SDS011;38816;51.142;-0.974;2023-01-19T05:21:56;16.83;;;5.60;;
51438;SDS011;38816;51.142;-0.974;2023-01-19T05:24:21;14.68;;;5.88;;
51438;SDS011;38816;51.142;-0.974;2023-01-19T05:26:46;13.98;;;5.90;;
51438;SDS011;38816;51.142;-0.974;2023-01-19T05:29:12;21.95;;;6.30;;
51438;SDS011;38816;51.142;-0.974;2023-01-19T05:31:37;16.80;;;6.22;;
51438;SDS011;38816;51.142;-0.974;2023-01-19T05:34:03;20.25;;;7.22;;
51438;SDS011;38816;51.142;-0.974;2023-01-19T05:36:29;15.00;;;7.25;;
51438;SDS011;38816;51.142;-0.974;2023-01-19T05:38:54;14.60;;;6.97;;
51438;SDS011;38816;51.142;-0.974;2023-01-19T05:41:20;13.00;;;6.78;;
51438;SDS011;38816;51.142;-0.974;2023-01-19T05:43:45;21.88;;;7.40;;
51438;SDS011;38816;51.142;-0.974;2023-01-19T05:46:11;12.38;;;6.95;;
51438;SDS011;38816;51.142;-0.974;2023-01-19T05:48:36;72.80;;;8.98;;
51438;SDS011;38816;51.142;-0.974;2023-01-19T05:51:02;25.88;;;8.82;;
51438;SDS011;38816;51.142;-0.974;2023-01-19T05:53:29;18.70;;;9.18;;
51438;SDS011;38816;51.142;-0.974;2023-01-19T05:55:58;22.23;;;8.85;;
51438;SDS011;38816;51.142;-0.974;2023-01-19T05:58:32;15.70;;;8.15;;
51438;SDS011;38816;51.142;-0.974;2023-01-19T06:01:02;22.23;;;8.80;;
51438;SDS011;38816;51.142;-0.974;2023-01-19T06:05:58;16.67;;;7.95;;
51438;SDS011;38816;51.142;-0.974;2023-01-19T06:08:24;17.92;;;8.55;;
51438;SDS011;38816;51.142;-0.974;2023-01-19T06:10:49;21.70;;;9.32;;
51438;SDS011;38816;51.142;-0.974;2023-01-19T06:13:15;20.55;;;9.70;;
51438;SDS011;38816;51.142;-0.974;2023-01-19T06:15:41;22.75;;;9.45;;
51438;SDS011;38816;51.142;-0.974;2023-01-19T06:18:08;21.80;;;8.18;;
51438;SDS011;38816;51.142;-0.974;2023-01-19T06:20:38;16.30;;;7.72;;
51438;SDS011;38816;51.142;-0.974;2023-01-19T06:23:03;17.85;;;8.45;;
51438;SDS011;38816;51.142;-0.974;2023-01-19T06:25:28;17.17;;;8.25;;
51438;SDS011;38816;51.142;-0.974;2023-01-19T06:27:54;19.70;;;8.85;;
51438;SDS011;38816;51.142;-0.974;2023-01-19T06:30:19;15.88;;;9.23;;
51438;SDS011;38816;51.142;-0.974;2023-01-19T06:32:45;20.40;;;10.30;;
51438;SDS011;38816;51.142;-0.974;2023-01-19T06:35:11;16.17;;;8.82;;
51438;SDS011;38816;51.142;-0.974;2023-01-19T06:37:37;17.23;;;7.97;;
51438;SDS011;38816;51.142;-0.974;2023-01-19T06:40:02;19.73;;;8.80;;
51438;SDS011;38816;51.142;-0.974;2023-01-19T06:42:28;24.75;;;8.30;;
51438;SDS011;38816;51.142;-0.974;2023-01-19T06:44:53;18.42;;;7.80;;
51438;SDS011;38816;51.142;-0.974;2023-01-19T06:47:19;16.05;;;6.97;;
51438;SDS011;38816;51.142;-0.974;2023-01-19T06:49:44;18.08;;;6.20;;
51438;SDS011;38816;51.142;-0.974;2023-01-19T06:52:10;11.93;;;5.65;;
51438;SDS011;38816;51.142;-0.974;2023-01-19T06:54:36;24.98;;;7.35;;
51438;SDS011;38816;51.142;-0.974;2023-01-19T06:57:02;14.48;;;6.70;;
51438;SDS011;38816;51.142;-0.974;2023-01-19T06:59:27;32.40;;;8.38;;
51438;SDS011;38816;51.142;-0.974;2023-01-19T07:01:53;75.65;;;9.40;;
51438;SDS011;38816;51.142;-0.974;2023-01-19T07:04:20;16.83;;;7.22;;
51438;SDS011;38816;51.142;-0.974;2023-01-19T07:06:45;20.92;;;7.78;;
51438;SDS011;38816;51.142;-0.974;2023-01-19T07:09:11;16.33;;;7.70;;
51438;SDS011;38816;51.142;-0.974;2023-01-19T07:11:37;16.52;;;6.75;;
51438;SDS011;38816;51.142;-0.974;2023-01-19T07:14:02;17.73;;;7.63;;
51438;SDS011;38816;51.142;-0.974;2023-01-19T07:16:28;22.65;;;8.85;;
51438;SDS011;38816;51.142;-0.974;2023-01-19T07:18:53;28.77;;;12.48;;
51438;SDS011;38816;51.142;-0.974;2023-01-19T07:21:19;33.95;;;13.00;;
51438;SDS011;38816;51.142;-0.974;2023-01-19T07:23:48;25.58;;;12.68;;
51438;SDS011;38816;51.142;-0.974;2023-01-19T07:26:16;28.77;;;13.68;;
51438;SDS011;38816;51.142;-0.974;2023-01-19T07:28:48;21.23;;;10.55;;
51438;SDS011;38816;51.142;-0.974;2023-01-19T07:31:14;24.65;;;10.00;;
51438;SDS011;38816;51.142;-0.974;2023-01-19T07:33:40;19.70;;;8.20;;
51438;SDS011;38816;51.142;-0.974;2023-01-19T07:36:06;13.07;;;7.65;;
51438;SDS011;38816;51.142;-0.974;2023-01-19T07:38:32;13.98;;;6.90;;
51438;SDS011;38816;51.142;-0.974;2023-01-19T07:41:01;19.58;;;7.20;;
51438;SDS011;38816;51.142;-0.974;2023-01-19T07:43:27;70.38;;;8.88;;
51438;SDS011;38816;51.142;-0.974;2023-01-19T07:45:56;16.35;;;6.63;;
51438;SDS011;38816;51.142;-0.974;2023-01-19T07:48:26;13.55;;;6.43;;
51438;SDS011;38816;51.142;-0.974;2023-01-19T07:50:52;22.00;;;8.13;;
51438;SDS011;38816;51.142;-0.974;2023-01-19T07:53:18;23.73;;;12.25;;
51438;SDS011;38816;51.142;-0.974;2023-01-19T07:55:43;40.05;;;16.67;;
51438;SDS011;38816;51.142;-0.974;2023-01-19T07:58:09;43.55;;;20.98;;
51438;SDS011;38816;51.142;-0.974;2023-01-19T08:00:35;32.88;;;15.88;;
51438;SDS011;38816;51.142;-0.974;2023-01-19T08:03:02;30.05;;;13.73;;
51438;SDS011;38816;51.142;-0.974;2023-01-19T08:05:29;16.23;;;7.78;;
51438;SDS011;38816;51.142;-0.974;2023-01-19T08:07:55;17.90;;;7.28;;
51438;SDS011;38816;51.142;-0.974;2023-01-19T08:10:21;17.63;;;7.32;;
51438;SDS011;38816;51.142;-0.974;2023-01-19T08:12:49;19.45;;;8.07;;
51438;SDS011;38816;51.142;-0.974;2023-01-19T08:15:15;26.38;;;9.50;;
51438;SDS011;38816;51.142;-0.974;2023-01-19T08:17:40;19.15;;;10.45;;
51438;SDS011;38816;51.142;-0.974;2023-01-19T08:20:06;34.90;;;13.57;;
51438;SDS011;38816;51.142;-0.974;2023-01-19T08:22:33;28.85;;;14.48;;
51438;SDS011;38816;51.142;-0.974;2023-01-19T08:24:58;24.05;;;11.60;;
51438;SDS011;38816;51.142;-0.974;2023-01-19T08:27:24;29.13;;;13.80;;
51438;SDS011;38816;51.142;-0.974;2023-01-19T08:29:49;25.98;;;13.88;;
51438;SDS011;38816;51.142;-0.974;2023-01-19T08:32:15;26.95;;;12.32;;
51438;SDS011;38816;51.142;-0.974;2023-01-19T08:34:40;28.58;;;13.85;;
51438;SDS011;38816;51.142;-0.974;2023-01-19T08:37:06;26.02;;;12.27;;
51438;SDS011;38816;51.142;-0.974;2023-01-19T08:39:31;19.05;;;10.82;;
51438;SDS011;38816;51.142;-0.974;2023-01-19T08:41:57;22.38;;;10.90;;
51438;SDS011;38816;51.142;-0.974;2023-01-19T08:44:25;26.85;;;12.57;;
51438;SDS011;38816;51.142;-0.974;2023-01-19T08:46:51;25.60;;;11.88;;
51438;SDS011;38816;51.142;-0.974;2023-01-19T08:49:16;21.95;;;12.20;;
51438;SDS011;38816;51.142;-0.974;2023-01-19T08:51:42;21.55;;;12.20;;
51438;SDS011;38816;51.142;-0.974;2023-01-19T08:54:10;29.27;;;12.80;;
51438;SDS011;38816;51.142;-0.974;2023-01-19T08:56:35;28.98;;;12.43;;
51438;SDS011;38816;51.142;-0.974;2023-01-19T08:59:01;23.60;;;11.70;;
51438;SDS011;38816;51.142;-0.974;2023-01-19T09:01:26;25.13;;;12.27;;
51438;SDS011;38816;51.142;-0.974;2023-01-19T09:03:51;27.40;;;10.75;;
51438;SDS011;38816;51.142;-0.974;2023-01-19T09:06:18;21.00;;;10.52;;
51438;SDS011;38816;51.142;-0.974;2023-01-19T09:08:44;19.48;;;9.45;;
51438;SDS011;38816;51.142;-0.974;2023-01-19T09:11:10;25.45;;;10.10;;
51438;SDS011;38816;51.142;-0.974;2023-01-19T09:13:37;23.58;;;9.90;;
51438;SDS011;38816;51.142;-0.974;2023-01-19T09:16:04;19.05;;;10.10;;
51438;SDS011;38816;51.142;-0.974;2023-01-19T09:18:32;19.13;;;9.95;;
51438;SDS011;38816;51.142;-0.974;2023-01-19T09:20:58;27.30;;;11.45;;
51438;SDS011;38816;51.142;-0.974;2023-01-19T09:23:24;23.90;;;10.32;;
51438;SDS011;38816;51.142;-0.974;2023-01-19T09:25:54;20.10;;;9.73;;
51438;SDS011;38816;51.142;-0.974;2023-01-19T09:28:21;22.33;;;10.73;;
51438;SDS011;38816;51.142;-0.974;2023-01-19T09:30:47;22.90;;;10.27;;
51438;SDS011;38816;51.142;-0.974;2023-01-19T09:33:13;26.13;;;9.93;;
51438;SDS011;38816;51.142;-0.974;2023-01-19T09:35:40;22.80;;;9.40;;
51438;SDS011;38816;51.142;-0.974;2023-01-19T09:38:07;18.17;;;9.57;;
51438;SDS011;38816;51.142;-0.974;2023-01-19T09:41:16;24.42;;;10.05;;
51438;SDS011;38816;51.142;-0.974;2023-01-19T09:43:34;22.08;;;9.80;;
51438;SDS011;38816;51.142;-0.974;2023-01-19T09:46:14;20.95;;;9.15;;
51438;SDS011;38816;51.142;-0.974;2023-01-19T09:51:18;27.90;;;11.25;;
51438;SDS011;38816;51.142;-0.974;2023-01-19T09:53:50;25.02;;;10.77;;
51438;SDS011;38816;51.142;-0.974;2023-01-19T09:56:38;31.73;;;13.70;;
51438;SDS011;38816;51.142;-0.974;2023-01-19T09:59:23;31.17;;;12.77;;
51438;SDS011;38816;51.142;-0.974;2023-01-19T10:04:56;23.95;;;12.95;;
51438;SDS011;38816;51.142;-0.974;2023-01-19T10:20:53;27.83;;;12.15;;
51438;SDS011;38816;51.142;-0.974;2023-01-19T10:23:49;24.48;;;11.88;;
51438;SDS011;38816;51.142;-0.974;2023-01-19T10:26:32;29.08;;;11.73;;
51438;SDS011;38816;51.142;-0.974;2023-01-19T10:29:04;27.20;;;11.18;;
51438;SDS011;38816;51.142;-0.974;2023-01-19T10:31:33;24.17;;;12.15;;
51438;SDS011;38816;51.142;-0.974;2023-01-19T10:34:01;19.10;;;10.35;;
51438;SDS011;38816;51.142;-0.974;2023-01-19T10:36:30;18.30;;;9.55;;
51438;SDS011;38816;51.142;-0.974;2023-01-19T10:38:59;23.40;;;9.68;;
51438;SDS011;38816;51.142;-0.974;2023-01-19T10:41:49;20.17;;;9.18;;
51438;SDS011;38816;51.142;-0.974;2023-01-19T10:44:22;31.17;;;10.65;;
51438;SDS011;38816;51.142;-0.974;2023-01-19T10:46:49;32.70;;;11.73;;
51438;SDS011;38816;51.142;-0.974;2023-01-19T10:51:59;27.45;;;11.13;;
51438;SDS011;38816;51.142;-0.974;2023-01-19T10:54:26;25.70;;;10.40;;
51438;SDS011;38816;51.142;-0.974;2023-01-19T10:57:00;24.60;;;10.65;;
51438;SDS011;38816;51.142;-0.974;2023-01-19T10:59:29;31.98;;;11.20;;
51438;SDS011;38816;51.142;-0.974;2023-01-19T11:04:46;27.27;;;13.52;;
51438;SDS011;38816;51.142;-0.974;2023-01-19T11:07:14;23.88;;;10.90;;
51438;SDS011;38816;51.142;-0.974;2023-01-19T11:09:45;21.25;;;8.98;;
51438;SDS011;38816;51.142;-0.974;2023-01-19T11:12:30;19.77;;;7.63;;
51438;SDS011;38816;51.142;-0.974;2023-01-19T11:14:55;22.83;;;8.88;;
51438;SDS011;38816;51.142;-0.974;2023-01-19T11:17:24;15.85;;;5.82;;
51438;SDS011;38816;51.142;-0.974;2023-01-19T11:19:51;13.18;;;4.68;;
51438;SDS011;38816;51.142;-0.974;2023-01-19T11:22:25;14.35;;;4.97;;
51438;SDS011;38816;51.142;-0.974;2023-01-19T11:24:56;10.60;;;4.50;;
51438;SDS011;38816;51.142;-0.974;2023-01-19T11:27:22;7.78;;;3.28;;
51438;SDS011;38816;51.142;-0.974;2023-01-19T11:29:49;11.35;;;3.40;;
51438;SDS011;38816;51.142;-0.974;2023-01-19T11:32:33;10.20;;;3.00;;
51438;SDS011;38816;51.142;-0.974;2023-01-19T11:35:01;9.50;;;2.65;;
51438;SDS011;38816;51.142;-0.974;2023-01-19T11:37:46;8.18;;;2.60;;
51438;SDS011;38816;51.142;-0.974;2023-01-19T11:40:14;9.80;;;3.17;;
51438;SDS011;38816;51.142;-0.974;2023-01-19T11:42:40;7.80;;;2.63;;
51438;SDS011;38816;51.142;-0.974;2023-01-19T11:45:13;13.07;;;2.88;;
51438;SDS011;38816;51.142;-0.974;2023-01-19T11:50:12;10.23;;;2.60;;
51438;SDS011;38816;51.142;-0.974;2023-01-19T11:53:06;11.38;;;3.08;;
51438;SDS011;38816;51.142;-0.974;2023-01-19T11:55:35;16.23;;;3.22;;
51438;SDS011;38816;51.142;-0.974;2023-01-19T11:58:05;10.57;;;2.40;;
51438;SDS011;38816;51.142;-0.974;2023-01-19T12:03:01;10.25;;;4.03;;
51438;SDS011;38816;51.142;-0.974;2023-01-19T12:05:42;18.85;;;3.72;;
51438;SDS011;38816;51.142;-0.974;2023-01-19T12:08:13;14.82;;;4.20;;
51438;SDS011;38816;51.142;-0.974;2023-01-19T12:10:43;20.42;;;4.18;;
51438;SDS011;38816;51.142;-0.974;2023-01-19T12:13:15;22.13;;;4.78;;
51438;SDS011;38816;51.142;-0.974;2023-01-19T12:15:44;9.15;;;3.03;;
51438;SDS011;38816;51.142;-0.974;2023-01-19T12:18:17;13.00;;;2.95;;
51438;SDS011;38816;51.142;-0.974;2023-01-19T12:20:46;8.30;;;3.00;;
51438;SDS011;38816;51.142;-0.974;2023-01-19T12:28:27;10.30;;;3.30;;
51438;SDS011;38816;51.142;-0.974;2023-01-19T12:31:00;14.52;;;2.97;;
51438;SDS011;38816;51.142;-0.974;2023-01-19T12:35:59;10.98;;;2.72;;
51438;SDS011;38816;51.142;-0.974;2023-01-19T12:43:42;9.70;;;2.60;;
51438;SDS011;38816;51.142;-0.974;2023-01-19T12:51:41;11.27;;;2.20;;
51438;SDS011;38816;51.142;-0.974;2023-01-19T12:54:07;7.05;;;2.15;;
51438;SDS011;38816;51.142;-0.974;2023-01-19T12:56:47;7.50;;;2.28;;
51438;SDS011;38816;51.142;-0.974;2023-01-19T12:59:23;13.98;;;2.80;;
51438;SDS011;38816;51.142;-0.974;2023-01-19T13:08:11;14.23;;;3.55;;
51438;SDS011;38816;51.142;-0.974;2023-01-19T13:13:38;7.90;;;3.85;;
51438;SDS011;38816;51.142;-0.974;2023-01-19T13:18:49;7.80;;;3.72;;
51438;SDS011;38816;51.142;-0.974;2023-01-19T13:21:25;9.48;;;3.40;;
51438;SDS011;38816;51.142;-0.974;2023-01-19T13:23:59;6.70;;;2.58;;
51438;SDS011;38816;51.142;-0.974;2023-01-19T13:29:07;6.78;;;2.10;;
51438;SDS011;38816;51.142;-0.974;2023-01-19T13:31:39;8.55;;;1.67;;
51438;SDS011;38816;51.142;-0.974;2023-01-19T13:34:17;7.78;;;2.63;;
51438;SDS011;38816;51.142;-0.974;2023-01-19T13:36:45;7.55;;;2.33;;
51438;SDS011;38816;51.142;-0.974;2023-01-19T13:41:55;5.22;;;1.75;;
51438;SDS011;38816;51.142;-0.974;2023-01-19T13:44:26;4.78;;;1.80;;
51438;SDS011;38816;51.142;-0.974;2023-01-19T13:46:54;23.20;;;3.00;;
51438;SDS011;38816;51.142;-0.974;2023-01-19T13:49:37;10.32;;;2.22;;
51438;SDS011;38816;51.142;-0.974;2023-01-19T13:52:14;8.63;;;2.38;;
51438;SDS011;38816;51.142;-0.974;2023-01-19T13:54:51;10.77;;;3.70;;
51438;SDS011;38816;51.142;-0.974;2023-01-19T14:05:23;12.10;;;2.75;;
51438;SDS011;38816;51.142;-0.974;2023-01-19T14:08:31;11.38;;;4.15;;
51438;SDS011;38816;51.142;-0.974;2023-01-19T14:10:40;14.20;;;3.40;;
51438;SDS011;38816;51.142;-0.974;2023-01-19T14:13:14;14.90;;;4.18;;
51438;SDS011;38816;51.142;-0.974;2023-01-19T14:15:43;7.72;;;2.53;;
51438;SDS011;38816;51.142;-0.974;2023-01-19T14:20:40;8.88;;;2.60;;
51438;SDS011;38816;51.142;-0.974;2023-01-19T14:31:33;12.15;;;2.90;;
51438;SDS011;38816;51.142;-0.974;2023-01-19T14:37:14;3.97;;;2.13;;
51438;SDS011;38816;51.142;-0.974;2023-01-19T14:39:50;9.00;;;2.60;;
51438;SDS011;38816;51.142;-0.974;2023-01-19T14:42:23;9.93;;;2.55;;
51438;SDS011;38816;51.142;-0.974;2023-01-19T14:44:52;5.88;;;2.60;;
51438;SDS011;38816;51.142;-0.974;2023-01-19T14:47:21;6.90;;;2.47;;
51438;SDS011;38816;51.142;-0.974;2023-01-19T14:49:53;9.27;;;2.13;;
51438;SDS011;38816;51.142;-0.974;2023-01-19T14:52:29;7.30;;;1.92;;
51438;SDS011;38816;51.142;-0.974;2023-01-19T14:54:57;7.72;;;2.28;;
51438;SDS011;38816;51.142;-0.974;2023-01-19T14:57:26;8.85;;;1.98;;
51438;SDS011;38816;51.142;-0.974;2023-01-19T14:59:52;8.98;;;2.17;;
51438;SDS011;38816;51.142;-0.974;2023-01-19T15:02:17;8.60;;;2.25;;
51438;SDS011;38816;51.142;-0.974;2023-01-19T15:04:43;5.60;;;1.80;;
51438;SDS011;38816;51.142;-0.974;2023-01-19T15:07:16;5.53;;;1.80;;
51438;SDS011;38816;51.142;-0.974;2023-01-19T15:09:43;5.78;;;1.77;;
51438;SDS011;38816;51.142;-0.974;2023-01-19T15:12:10;7.20;;;1.90;;
51438;SDS011;38816;51.142;-0.974;2023-01-19T15:14:38;6.38;;;1.67;;
51438;SDS011;38816;51.142;-0.974;2023-01-19T15:17:04;5.57;;;1.80;;
51438;SDS011;38816;51.142;-0.974;2023-01-19T15:19:30;12.10;;;2.60;;
51438;SDS011;38816;51.142;-0.974;2023-01-19T15:21:55;5.40;;;2.17;;
51438;SDS011;38816;51.142;-0.974;2023-01-19T15:24:20;6.95;;;2.30;;
51438;SDS011;38816;51.142;-0.974;2023-01-19T15:26:46;9.35;;;1.92;;
51438;SDS011;38816;51.142;-0.974;2023-01-19T15:29:17;10.93;;;2.50;;
51438;SDS011;38816;51.142;-0.974;2023-01-19T15:31:46;8.95;;;2.50;;
51438;SDS011;38816;51.142;-0.974;2023-01-19T15:34:11;7.50;;;2.75;;
51438;SDS011;38816;51.142;-0.974;2023-01-19T15:36:38;8.25;;;2.95;;
51438;SDS011;38816;51.142;-0.974;2023-01-19T15:39:04;10.57;;;4.00;;
51438;SDS011;38816;51.142;-0.974;2023-01-19T15:41:29;7.15;;;2.85;;
51438;SDS011;38816;51.142;-0.974;2023-01-19T15:43:55;6.63;;;2.42;;
51438;SDS011;38816;51.142;-0.974;2023-01-19T15:46:21;12.00;;;2.58;;
51438;SDS011;38816;51.142;-0.974;2023-01-19T15:48:49;14.90;;;2.97;;
51438;SDS011;38816;51.142;-0.974;2023-01-19T15:51:15;7.95;;;2.60;;
51438;SDS011;38816;51.142;-0.974;2023-01-19T15:53:46;11.27;;;2.95;;
51438;SDS011;38816;51.142;-0.974;2023-01-19T15:56:12;13.15;;;5.32;;
51438;SDS011;38816;51.142;-0.974;2023-01-19T15:58:42;12.13;;;4.07;;
51438;SDS011;38816;51.142;-0.974;2023-01-19T16:01:14;9.20;;;3.65;;
51438;SDS011;38816;51.142;-0.974;2023-01-19T16:06:07;7.75;;;2.92;;
51438;SDS011;38816;51.142;-0.974;2023-01-19T16:08:33;10.95;;;3.10;;
51438;SDS011;38816;51.142;-0.974;2023-01-19T16:11:06;11.40;;;2.65;;
51438;SDS011;38816;51.142;-0.974;2023-01-19T16:13:33;8.45;;;2.97;;
51438;SDS011;38816;51.142;-0.974;2023-01-19T16:16:03;9.65;;;3.17;;
51438;SDS011;38816;51.142;-0.974;2023-01-19T16:18:29;8.30;;;3.08;;
51438;SDS011;38816;51.142;-0.974;2023-01-19T16:20:55;12.20;;;3.60;;
51438;SDS011;38816;51.142;-0.974;2023-01-19T16:23:20;9.25;;;3.50;;